sensor_id;sensor_type;location;lat;lon;timestamp;pressure;altitude;pressure_sealevel;temperature;humidity
23241;BME280;11789;53.482;9.862;2023-06-19T00:02:14;101259.03;;;20.40;65.51
23241;BME280;11789;53.482;9.862;2023-06-19T00:04:39;101261.75;;;20.37;65.67
23241;BME280;11789;53.482;9.862;2023-06-19T00:07:05;101257.41;;;20.36;65.77
23241;BME280;11789;53.482;9.862;2023-06-19T00:09:32;101251.38;;;20.34;65.69
23241;BME280;11789;53.482;9.862;2023-06-19T00:11:58;101255.75;;;20.34;65.69
23241;BME280;11789;53.482;9.862;2023-06-19T00:14:25;101254.94;;;20.32;65.99
23241;BME280;11789;53.482;9.862;2023-06-19T00:16:51;101252.31;;;20.32;66.02
23241;BME280;11789;53.482;9.862;2023-06-19T00:19:17;101250.66;;;20.29;66.12
23241;BME280;11789;53.482;9.862;2023-06-19T00:21:43;101252.44;;;20.29;66.34
23241;BME280;11789;53.482;9.862;2023-06-19T00:24:09;101245.41;;;20.29;66.44
23241;BME280;11789;53.482;9.862;2023-06-19T00:26:35;101228.84;;;20.27;66.40
23241;BME280;11789;53.482;9.862;2023-06-19T00:29:00;101225.34;;;20.28;66.14
23241;BME280;11789;53.482;9.862;2023-06-19T00:31:26;101232.50;;;20.23;66.43
23241;BME280;11789;53.482;9.862;2023-06-19T00:33:52;101225.53;;;20.22;66.64
23241;BME280;11789;53.482;9.862;2023-06-19T00:36:18;101226.56;;;20.18;66.94
23241;BME280;11789;53.482;9.862;2023-06-19T00:38:46;101222.19;;;20.17;67.12
23241;BME280;11789;53.482;9.862;2023-06-19T00:41:12;101225.81;;;20.14;67.61
23241;BME280;11789;53.482;9.862;2023-06-19T00:43:37;101224.13;;;20.12;67.64
23241;BME280;11789;53.482;9.862;2023-06-19T00:46:03;101223.28;;;20.11;67.10
23241;BME280;11789;53.482;9.862;2023-06-19T00:48:30;101224.19;;;20.10;67.35
23241;BME280;11789;53.482;9.862;2023-06-19T00:50:57;101221.62;;;20.09;67.46
23241;BME280;11789;53.482;9.862;2023-06-19T00:53:23;101229.59;;;20.06;67.53
23241;BME280;11789;53.482;9.862;2023-06-19T00:55:50;101225.19;;;20.06;67.71
23241;BME280;11789;53.482;9.862;2023-06-19T00:58:17;101221.78;;;20.04;67.48
23241;BME280;11789;53.482;9.862;2023-06-19T01:00:43;101214.81;;;20.03;67.49
23241;BME280;11789;53.482;9.862;2023-06-19T01:03:09;101212.13;;;20.05;67.33
23241;BME280;11789;53.482;9.862;2023-06-19T01:05:35;101208.72;;;20.03;67.28
23241;BME280;11789;53.482;9.862;2023-06-19T01:08:12;101207.91;;;20.01;67.33
23241;BME280;11789;53.482;9.862;2023-06-19T01:10:49;101202.66;;;20.01;67.37
23241;BME280;11789;53.482;9.862;2023-06-19T01:13:41;101190.44;;;20.00;67.39
23241;BME280;11789;53.482;9.862;2023-06-19T01:16:10;101184.41;;;19.98;67.69
23241;BME280;11789;53.482;9.862;2023-06-19T01:18:36;101172.28;;;19.93;67.93
23241;BME280;11789;53.482;9.862;2023-06-19T01:21:15;101175.94;;;19.89;68.21
23241;BME280;11789;53.482;9.862;2023-06-19T01:23:42;101177.75;;;19.87;68.42
23241;BME280;11789;53.482;9.862;2023-06-19T01:26:08;101167.34;;;19.84;68.64
23241;BME280;11789;53.482;9.862;2023-06-19T01:28:40;101166.50;;;19.84;68.58
23241;BME280;11789;53.482;9.862;2023-06-19T01:31:25;101167.44;;;19.81;68.91
23241;BME280;11789;53.482;9.862;2023-06-19T01:33:52;101163.97;;;19.81;68.69
23241;BME280;11789;53.482;9.862;2023-06-19T01:36:18;101166.59;;;19.81;68.76
23241;BME280;11789;53.482;9.862;2023-06-19T01:38:45;101159.63;;;19.80;68.54
23241;BME280;11789;53.482;9.862;2023-06-19T01:41:14;101163.19;;;19.79;68.73
23241;BME280;11789;53.482;9.862;2023-06-19T01:43:41;101165.87;;;19.77;69.03
23241;BME280;11789;53.482;9.862;2023-06-19T01:46:07;101168.53;;;19.76;69.27
23241;BME280;11789;53.482;9.862;2023-06-19T01:48:35;101172.97;;;19.74;69.54
23241;BME280;11789;53.482;9.862;2023-06-19T01:51:00;101166.91;;;19.72;69.96
23241;BME280;11789;53.482;9.862;2023-06-19T01:53:30;101158.25;;;19.69;70.06
23241;BME280;11789;53.482;9.862;2023-06-19T01:55:55;101155.69;;;19.68;70.25
23241;BME280;11789;53.482;9.862;2023-06-19T01:58:21;101160.09;;;19.66;70.22
23241;BME280;11789;53.482;9.862;2023-06-19T02:00:46;101154.00;;;19.65;70.11
23241;BME280;11789;53.482;9.862;2023-06-19T02:03:12;101157.47;;;19.66;69.92
23241;BME280;11789;53.482;9.862;2023-06-19T02:05:37;101153.09;;;19.66;69.99
23241;BME280;11789;53.482;9.862;2023-06-19T02:08:05;101150.53;;;19.65;69.84
23241;BME280;11789;53.482;9.862;2023-06-19T02:10:31;101154.91;;;19.64;70.01
23241;BME280;11789;53.482;9.862;2023-06-19T02:12:57;101148.81;;;19.64;69.90
23241;BME280;11789;53.482;9.862;2023-06-19T02:15:23;101146.19;;;19.64;69.96
23241;BME280;11789;53.482;9.862;2023-06-19T02:17:49;101148.81;;;19.64;70.30
23241;BME280;11789;53.482;9.862;2023-06-19T02:20:21;101152.37;;;19.61;70.42
23241;BME280;11789;53.482;9.862;2023-06-19T02:22:46;101144.56;;;19.60;70.48
23241;BME280;11789;53.482;9.862;2023-06-19T02:25:12;101153.31;;;19.59;70.60
23241;BME280;11789;53.482;9.862;2023-06-19T02:27:37;101147.22;;;19.58;70.37
23241;BME280;11789;53.482;9.862;2023-06-19T02:30:03;101153.38;;;19.57;70.57
23241;BME280;11789;53.482;9.862;2023-06-19T02:32:30;101144.66;;;19.57;70.57
23241;BME280;11789;53.482;9.862;2023-06-19T02:34:55;101149.09;;;19.55;70.92
23241;BME280;11789;53.482;9.862;2023-06-19T02:37:21;101157.88;;;19.54;71.34
23241;BME280;11789;53.482;9.862;2023-06-19T02:39:46;101148.31;;;19.51;71.59
23241;BME280;11789;53.482;9.862;2023-06-19T02:42:11;101143.97;;;19.52;71.49
23241;BME280;11789;53.482;9.862;2023-06-19T02:44:37;101148.28;;;19.53;70.84
23241;BME280;11789;53.482;9.862;2023-06-19T02:47:02;101142.19;;;19.52;70.84
23241;BME280;11789;53.482;9.862;2023-06-19T02:49:28;101136.13;;;19.50;71.29
23241;BME280;11789;53.482;9.862;2023-06-19T02:51:53;101139.72;;;19.48;71.39
23241;BME280;11789;53.482;9.862;2023-06-19T02:54:19;101136.19;;;19.49;71.34
23241;BME280;11789;53.482;9.862;2023-06-19T02:56:44;101129.22;;;19.48;71.17
23241;BME280;11789;53.482;9.862;2023-06-19T02:59:10;101126.62;;;19.48;71.22
23241;BME280;11789;53.482;9.862;2023-06-19T03:01:35;101119.66;;;19.47;71.04
23241;BME280;11789;53.482;9.862;2023-06-19T03:04:00;101125.78;;;19.45;71.35
23241;BME280;11789;53.482;9.862;2023-06-19T03:06:26;101129.38;;;19.43;71.42
23241;BME280;11789;53.482;9.862;2023-06-19T03:08:51;101131.16;;;19.42;71.31
23241;BME280;11789;53.482;9.862;2023-06-19T03:11:17;101128.53;;;19.42;71.45
23241;BME280;11789;53.482;9.862;2023-06-19T03:13:52;101132.06;;;19.41;71.60
23241;BME280;11789;53.482;9.862;2023-06-19T03:16:19;101132.94;;;19.40;71.90
23241;BME280;11789;53.482;9.862;2023-06-19T03:18:45;101127.75;;;19.39;72.05
23241;BME280;11789;53.482;9.862;2023-06-19T03:21:11;101126.06;;;19.38;72.32
23241;BME280;11789;53.482;9.862;2023-06-19T03:23:37;101123.50;;;19.36;72.24
23241;BME280;11789;53.482;9.862;2023-06-19T03:26:03;101119.09;;;19.37;71.96
23241;BME280;11789;53.482;9.862;2023-06-19T03:28:28;101108.63;;;19.37;71.48
23241;BME280;11789;53.482;9.862;2023-06-19T03:30:54;101115.66;;;19.35;71.63
23241;BME280;11789;53.482;9.862;2023-06-19T03:33:19;101109.56;;;19.34;72.06
23241;BME280;11789;53.482;9.862;2023-06-19T03:35:45;101112.19;;;19.34;72.16
23241;BME280;11789;53.482;9.862;2023-06-19T03:38:10;101101.81;;;19.31;72.13
23241;BME280;11789;53.482;9.862;2023-06-19T03:40:36;101102.69;;;19.30;72.04
23241;BME280;11789;53.482;9.862;2023-06-19T03:43:01;101106.22;;;19.29;71.88
23241;BME280;11789;53.482;9.862;2023-06-19T03:45:27;101094.03;;;19.28;71.71
23241;BME280;11789;53.482;9.862;2023-06-19T03:47:52;101086.19;;;19.28;71.63
23241;BME280;11789;53.482;9.862;2023-06-19T03:50:18;101081.84;;;19.27;71.77
23241;BME280;11789;53.482;9.862;2023-06-19T03:52:43;101080.13;;;19.26;71.95
23241;BME280;11789;53.482;9.862;2023-06-19T03:55:09;101089.75;;;19.26;71.79
23241;BME280;11789;53.482;9.862;2023-06-19T03:57:34;101085.38;;;19.26;71.79
23241;BME280;11789;53.482;9.862;2023-06-19T04:00:00;101084.50;;;19.26;71.50
23241;BME280;11789;53.482;9.862;2023-06-19T04:02:25;101089.81;;;19.24;71.62
23241;BME280;11789;53.482;9.862;2023-06-19T04:04:51;101090.63;;;19.26;71.88
23241;BME280;11789;53.482;9.862;2023-06-19T04:07:16;101093.34;;;19.23;72.09
23241;BME280;11789;53.482;9.862;2023-06-19T04:09:42;101087.19;;;19.24;71.58
23241;BME280;11789;53.482;9.862;2023-06-19T04:12:08;101089.75;;;19.26;71.47
23241;BME280;11789;53.482;9.862;2023-06-19T04:14:33;101096.75;;;19.25;71.50
23241;BME280;11789;53.482;9.862;2023-06-19T04:16:59;101098.53;;;19.25;71.62
23241;BME280;11789;53.482;9.862;2023-06-19T04:19:24;101097.66;;;19.24;71.72
23241;BME280;11789;53.482;9.862;2023-06-19T04:21:49;101093.25;;;19.26;71.63
23241;BME280;11789;53.482;9.862;2023-06-19T04:24:15;101096.81;;;19.24;71.83
23241;BME280;11789;53.482;9.862;2023-06-19T04:26:40;101082.84;;;19.23;71.71
23241;BME280;11789;53.482;9.862;2023-06-19T04:29:07;101086.38;;;19.22;71.68
23241;BME280;11789;53.482;9.862;2023-06-19T04:31:33;101092.47;;;19.23;71.51
23241;BME280;11789;53.482;9.862;2023-06-19T04:34:00;101095.16;;;19.21;71.75
23241;BME280;11789;53.482;9.862;2023-06-19T04:36:29;101092.53;;;19.21;71.53
23241;BME280;11789;53.482;9.862;2023-06-19T04:38:57;101083.75;;;19.22;71.44
23241;BME280;11789;53.482;9.862;2023-06-19T04:41:23;101087.25;;;19.23;71.62
23241;BME280;11789;53.482;9.862;2023-06-19T04:43:49;101087.25;;;19.23;71.86
23241;BME280;11789;53.482;9.862;2023-06-19T04:46:14;101087.31;;;19.21;71.78
23241;BME280;11789;53.482;9.862;2023-06-19T04:48:45;101079.44;;;19.21;72.12
23241;BME280;11789;53.482;9.862;2023-06-19T04:51:16;101076.75;;;19.23;71.69
23241;BME280;11789;53.482;9.862;2023-06-19T04:53:45;101084.69;;;19.21;71.78
23241;BME280;11789;53.482;9.862;2023-06-19T04:56:11;101083.78;;;19.21;71.67
23241;BME280;11789;53.482;9.862;2023-06-19T04:58:36;101080.31;;;19.20;71.93
23241;BME280;11789;53.482;9.862;2023-06-19T05:01:04;101082.94;;;19.20;71.94
23241;BME280;11789;53.482;9.862;2023-06-19T05:03:29;101065.50;;;19.19;71.75
23241;BME280;11789;53.482;9.862;2023-06-19T05:05:54;101079.53;;;19.18;71.92
23241;BME280;11789;53.482;9.862;2023-06-19T05:08:20;101076.91;;;19.18;71.82
23241;BME280;11789;53.482;9.862;2023-06-19T05:10:45;101081.28;;;19.17;72.10
23241;BME280;11789;53.482;9.862;2023-06-19T05:13:11;101086.53;;;19.17;72.06
23241;BME280;11789;53.482;9.862;2023-06-19T05:15:36;101085.72;;;19.15;72.33
23241;BME280;11789;53.482;9.862;2023-06-19T05:18:01;101084.91;;;19.13;72.25
23241;BME280;11789;53.482;9.862;2023-06-19T05:20:28;101085.78;;;19.14;72.06
23241;BME280;11789;53.482;9.862;2023-06-19T05:22:53;101090.94;;;19.15;72.13
23241;BME280;11789;53.482;9.862;2023-06-19T05:25:19;101097.09;;;19.14;72.35
23241;BME280;11789;53.482;9.862;2023-06-19T05:27:44;101089.22;;;19.16;71.99
23241;BME280;11789;53.482;9.862;2023-06-19T05:30:10;101102.31;;;19.16;72.34
23241;BME280;11789;53.482;9.862;2023-06-19T05:32:35;101102.25;;;19.17;72.54
23241;BME280;11789;53.482;9.862;2023-06-19T05:35:01;101104.87;;;19.17;72.67
23241;BME280;11789;53.482;9.862;2023-06-19T05:37:26;101104.81;;;19.19;72.22
23241;BME280;11789;53.482;9.862;2023-06-19T05:39:52;101102.19;;;19.19;72.77
23241;BME280;11789;53.482;9.862;2023-06-19T05:42:17;101114.31;;;19.23;72.07
23241;BME280;11789;53.482;9.862;2023-06-19T05:44:43;101120.34;;;19.25;72.23
23241;BME280;11789;53.482;9.862;2023-06-19T05:47:08;101117.69;;;19.27;72.48
23241;BME280;11789;53.482;9.862;2023-06-19T05:49:34;101128.13;;;19.28;72.51
23241;BME280;11789;53.482;9.862;2023-06-19T05:51:59;101130.69;;;19.30;72.49
23241;BME280;11789;53.482;9.862;2023-06-19T05:54:25;101130.53;;;19.34;72.42
23241;BME280;11789;53.482;9.862;2023-06-19T05:56:52;101139.22;;;19.36;72.31
23241;BME280;11789;53.482;9.862;2023-06-19T05:59:17;101133.84;;;19.39;72.70
23241;BME280;11789;53.482;9.862;2023-06-19T06:01:43;101146.97;;;19.39;73.31
23241;BME280;11789;53.482;9.862;2023-06-19T06:04:08;101146.97;;;19.39;74.20
23241;BME280;11789;53.482;9.862;2023-06-19T06:06:34;101146.19;;;19.37;76.24
23241;BME280;11789;53.482;9.862;2023-06-19T06:09:00;101145.41;;;19.34;78.09
23241;BME280;11789;53.482;9.862;2023-06-19T06:11:25;101140.31;;;19.29;80.08
23241;BME280;11789;53.482;9.862;2023-06-19T06:13:51;101125.78;;;19.19;81.57
23241;BME280;11789;53.482;9.862;2023-06-19T06:16:17;101132.16;;;19.12;82.30
23241;BME280;11789;53.482;9.862;2023-06-19T06:18:42;101133.16;;;19.08;82.51
23241;BME280;11789;53.482;9.862;2023-06-19T06:21:08;101139.31;;;19.05;82.56
23241;BME280;11789;53.482;9.862;2023-06-19T06:23:33;101142.00;;;19.04;83.18
23241;BME280;11789;53.482;9.862;2023-06-19T06:25:58;101134.19;;;19.02;83.95
23241;BME280;11789;53.482;9.862;2023-06-19T06:28:28;101130.88;;;18.97;84.43
23241;BME280;11789;53.482;9.862;2023-06-19T06:30:54;101115.34;;;18.91;86.11
23241;BME280;11789;53.482;9.862;2023-06-19T06:33:19;101109.47;;;18.83;87.69
23241;BME280;11789;53.482;9.862;2023-06-19T06:35:45;101109.66;;;18.77;88.08
23241;BME280;11789;53.482;9.862;2023-06-19T06:38:10;101130.50;;;18.80;87.96
23241;BME280;11789;53.482;9.862;2023-06-19T06:40:36;101136.59;;;18.82;88.30
23241;BME280;11789;53.482;9.862;2023-06-19T06:43:02;101120.00;;;18.81;88.94
23241;BME280;11789;53.482;9.862;2023-06-19T06:45:27;101118.13;;;18.85;86.37
23241;BME280;11789;53.482;9.862;2023-06-19T06:47:53;101111.94;;;18.87;86.24
23241;BME280;11789;53.482;9.862;2023-06-19T06:50:18;101111.75;;;18.93;85.74
23241;BME280;11789;53.482;9.862;2023-06-19T06:52:44;101118.47;;;19.02;84.68
23241;BME280;11789;53.482;9.862;2023-06-19T06:55:09;101113.88;;;19.09;84.29
23241;BME280;11789;53.482;9.862;2023-06-19T06:57:35;101119.00;;;19.13;84.41
23241;BME280;11789;53.482;9.862;2023-06-19T07:00:01;101111.97;;;19.14;83.89
23241;BME280;11789;53.482;9.862;2023-06-19T07:02:26;101116.28;;;19.16;84.01
23241;BME280;11789;53.482;9.862;2023-06-19T07:04:52;101118.00;;;19.17;83.86
23241;BME280;11789;53.482;9.862;2023-06-19T07:07:17;101121.41;;;19.19;83.65
23241;BME280;11789;53.482;9.862;2023-06-19T07:09:43;101118.69;;;19.23;83.33
23241;BME280;11789;53.482;9.862;2023-06-19T07:12:08;101130.81;;;19.25;83.85
23241;BME280;11789;53.482;9.862;2023-06-19T07:14:33;101134.31;;;19.26;83.48
23241;BME280;11789;53.482;9.862;2023-06-19T07:16:59;101134.22;;;19.29;83.08
23241;BME280;11789;53.482;9.862;2023-06-19T07:19:24;101128.91;;;19.30;82.12
23241;BME280;11789;53.482;9.862;2023-06-19T07:21:50;101143.75;;;19.31;81.58
23241;BME280;11789;53.482;9.862;2023-06-19T07:24:16;101151.56;;;19.33;82.36
23241;BME280;11789;53.482;9.862;2023-06-19T07:26:42;101152.34;;;19.36;82.47
23241;BME280;11789;53.482;9.862;2023-06-19T07:29:07;101142.59;;;19.40;82.27
23241;BME280;11789;53.482;9.862;2023-06-19T07:31:32;101145.13;;;19.43;81.74
23241;BME280;11789;53.482;9.862;2023-06-19T07:33:58;101149.28;;;19.49;81.43
23241;BME280;11789;53.482;9.862;2023-06-19T07:36:23;101137.69;;;19.56;80.68
23241;BME280;11789;53.482;9.862;2023-06-19T07:38:49;101138.37;;;19.62;80.21
23241;BME280;11789;53.482;9.862;2023-06-19T07:41:14;101140.66;;;19.72;80.19
23241;BME280;11789;53.482;9.862;2023-06-19T07:43:40;101138.72;;;19.78;79.11
23241;BME280;11789;53.482;9.862;2023-06-19T07:46:05;101142.03;;;19.83;78.82
23241;BME280;11789;53.482;9.862;2023-06-19T07:48:31;101152.16;;;19.94;78.77
23241;BME280;11789;53.482;9.862;2023-06-19T07:50:56;101149.75;;;20.13;78.20
23241;BME280;11789;53.482;9.862;2023-06-19T07:53:22;101143.47;;;20.40;77.33
23241;BME280;11789;53.482;9.862;2023-06-19T07:55:47;101142.06;;;20.55;75.61
23241;BME280;11789;53.482;9.862;2023-06-19T07:58:13;101145.06;;;20.68;76.03
23241;BME280;11789;53.482;9.862;2023-06-19T08:00:38;101137.59;;;20.81;75.15
23241;BME280;11789;53.482;9.862;2023-06-19T08:03:04;101137.16;;;20.91;75.21
23241;BME280;11789;53.482;9.862;2023-06-19T08:05:33;101145.87;;;20.93;74.04
23241;BME280;11789;53.482;9.862;2023-06-19T08:07:58;101142.44;;;20.91;73.81
23241;BME280;11789;53.482;9.862;2023-06-19T08:10:24;101136.25;;;20.92;73.62
23241;BME280;11789;53.482;9.862;2023-06-19T08:12:50;101135.97;;;21.00;73.03
23241;BME280;11789;53.482;9.862;2023-06-19T08:15:15;101137.22;;;21.12;72.47
23241;BME280;11789;53.482;9.862;2023-06-19T08:17:42;101139.38;;;21.24;72.10
23241;BME280;11789;53.482;9.862;2023-06-19T08:20:08;101131.75;;;21.40;72.56
23241;BME280;11789;53.482;9.862;2023-06-19T08:22:34;101135.75;;;21.48;72.02
23241;BME280;11789;53.482;9.862;2023-06-19T08:25:00;101137.88;;;21.61;72.14
23241;BME280;11789;53.482;9.862;2023-06-19T08:27:25;101118.06;;;21.72;70.97
23241;BME280;11789;53.482;9.862;2023-06-19T08:29:51;101121.16;;;21.82;71.02
23241;BME280;11789;53.482;9.862;2023-06-19T08:32:16;101122.03;;;21.83;69.99
23241;BME280;11789;53.482;9.862;2023-06-19T08:34:42;101121.50;;;21.95;69.43
23241;BME280;11789;53.482;9.862;2023-06-19T08:37:07;101117.53;;;22.05;69.47
23241;BME280;11789;53.482;9.862;2023-06-19T08:39:34;101121.50;;;22.15;67.71
23241;BME280;11789;53.482;9.862;2023-06-19T08:42:01;101119.28;;;22.25;66.45
23241;BME280;11789;53.482;9.862;2023-06-19T08:44:27;101120.53;;;22.37;67.13
23241;BME280;11789;53.482;9.862;2023-06-19T08:46:53;101120.66;;;22.52;66.64
23241;BME280;11789;53.482;9.862;2023-06-19T08:49:18;101114.91;;;22.63;66.12
23241;BME280;11789;53.482;9.862;2023-06-19T08:51:44;101114.87;;;22.82;66.20
23241;BME280;11789;53.482;9.862;2023-06-19T08:54:09;101109.91;;;22.95;66.17
23241;BME280;11789;53.482;9.862;2023-06-19T08:56:35;101104.03;;;23.07;65.09
23241;BME280;11789;53.482;9.862;2023-06-19T08:59:14;101106.06;;;23.19;63.99
23241;BME280;11789;53.482;9.862;2023-06-19T09:01:50;101105.00;;;23.23;63.86
23241;BME280;11789;53.482;9.862;2023-06-19T09:04:25;101111.75;;;23.29;62.08
23241;BME280;11789;53.482;9.862;2023-06-19T09:07:00;101110.44;;;23.38;61.51
23241;BME280;11789;53.482;9.862;2023-06-19T09:09:26;101104.84;;;23.44;60.82
23241;BME280;11789;53.482;9.862;2023-06-19T09:12:12;101108.47;;;23.41;61.38
23241;BME280;11789;53.482;9.862;2023-06-19T09:14:40;101104.53;;;23.50;62.48
23241;BME280;11789;53.482;9.862;2023-06-19T09:17:08;101108.84;;;23.51;60.76
23241;BME280;11789;53.482;9.862;2023-06-19T09:19:35;101103.28;;;23.57;60.07
23241;BME280;11789;53.482;9.862;2023-06-19T09:22:02;101104.47;;;23.69;62.87
23241;BME280;11789;53.482;9.862;2023-06-19T09:24:39;101098.78;;;23.76;61.32
23241;BME280;11789;53.482;9.862;2023-06-19T09:27:18;101101.03;;;23.84;60.93
23241;BME280;11789;53.482;9.862;2023-06-19T09:29:46;101107.38;;;23.97;61.79
23241;BME280;11789;53.482;9.862;2023-06-19T09:32:19;101110.47;;;24.05;61.76
23241;BME280;11789;53.482;9.862;2023-06-19T09:34:45;101108.03;;;24.18;61.69
23241;BME280;11789;53.482;9.862;2023-06-19T09:37:11;101109.13;;;24.14;60.43
23241;BME280;11789;53.482;9.862;2023-06-19T09:39:40;101113.19;;;24.04;61.75
23241;BME280;11789;53.482;9.862;2023-06-19T09:42:09;101108.53;;;23.92;61.15
23241;BME280;11789;53.482;9.862;2023-06-19T09:44:42;101109.06;;;23.83;62.80
23241;BME280;11789;53.482;9.862;2023-06-19T09:47:17;101103.78;;;23.83;62.64
23241;BME280;11789;53.482;9.862;2023-06-19T09:49:54;101105.00;;;23.93;62.80
23241;BME280;11789;53.482;9.862;2023-06-19T09:52:20;101113.09;;;24.05;62.73
23241;BME280;11789;53.482;9.862;2023-06-19T09:54:49;101114.81;;;24.06;64.53
23241;BME280;11789;53.482;9.862;2023-06-19T09:57:15;101110.47;;;24.05;63.14
23241;BME280;11789;53.482;9.862;2023-06-19T09:59:42;101106.41;;;24.16;61.92
23241;BME280;11789;53.482;9.862;2023-06-19T10:02:09;101102.75;;;24.18;60.78
23241;BME280;11789;53.482;9.862;2023-06-19T10:04:46;101101.37;;;24.27;60.67
23241;BME280;11789;53.482;9.862;2023-06-19T10:07:16;101100.72;;;24.23;62.91
23241;BME280;11789;53.482;9.862;2023-06-19T10:09:42;101105.06;;;24.24;62.08
23241;BME280;11789;53.482;9.862;2023-06-19T10:12:13;101097.19;;;24.40;60.44
23241;BME280;11789;53.482;9.862;2023-06-19T10:14:46;101099.38;;;24.48;60.93
23241;BME280;11789;53.482;9.862;2023-06-19T10:17:16;101104.75;;;24.46;59.62
23241;BME280;11789;53.482;9.862;2023-06-19T10:19:50;101103.75;;;24.49;58.36
23241;BME280;11789;53.482;9.862;2023-06-19T10:22:20;101111.44;;;24.53;58.78
23241;BME280;11789;53.482;9.862;2023-06-19T10:24:50;101106.16;;;24.53;58.42
23241;BME280;11789;53.482;9.862;2023-06-19T10:27:21;101108.78;;;24.53;58.06
23241;BME280;11789;53.482;9.862;2023-06-19T10:29:53;101115.00;;;24.52;57.64
23241;BME280;11789;53.482;9.862;2023-06-19T10:32:29;101107.06;;;24.52;58.85
23241;BME280;11789;53.482;9.862;2023-06-19T10:34:55;101113.12;;;24.54;58.80
23241;BME280;11789;53.482;9.862;2023-06-19T10:37:32;101113.78;;;24.58;58.33
23241;BME280;11789;53.482;9.862;2023-06-19T10:39:58;101111.09;;;24.59;57.64
23241;BME280;11789;53.482;9.862;2023-06-19T10:42:23;101112.94;;;24.57;57.51
23241;BME280;11789;53.482;9.862;2023-06-19T10:44:49;101106.31;;;24.50;56.94
23241;BME280;11789;53.482;9.862;2023-06-19T10:47:14;101108.00;;;24.51;57.59
23241;BME280;11789;53.482;9.862;2023-06-19T10:49:41;101111.44;;;24.53;58.03
23241;BME280;11789;53.482;9.862;2023-06-19T10:52:07;101109.41;;;24.58;58.36
23241;BME280;11789;53.482;9.862;2023-06-19T10:54:32;101107.16;;;24.67;57.61
23241;BME280;11789;53.482;9.862;2023-06-19T10:56:57;101094.53;;;24.72;57.61
23241;BME280;11789;53.482;9.862;2023-06-19T10:59:28;101097.41;;;24.83;55.75
23241;BME280;11789;53.482;9.862;2023-06-19T11:01:53;101107.75;;;24.88;56.05
23241;BME280;11789;53.482;9.862;2023-06-19T11:04:19;101095.03;;;24.94;52.76
23241;BME280;11789;53.482;9.862;2023-06-19T11:06:44;101099.78;;;25.03;53.36
23241;BME280;11789;53.482;9.862;2023-06-19T11:09:13;101095.19;;;25.07;56.13
23241;BME280;11789;53.482;9.862;2023-06-19T11:11:46;101096.91;;;25.08;54.95
23241;BME280;11789;53.482;9.862;2023-06-19T11:14:14;101097.84;;;25.07;55.24
23241;BME280;11789;53.482;9.862;2023-06-19T11:16:45;101093.16;;;25.12;55.32
23241;BME280;11789;53.482;9.862;2023-06-19T11:19:19;101094.56;;;25.18;56.46
23241;BME280;11789;53.482;9.862;2023-06-19T11:21:51;101100.47;;;25.23;55.81
23241;BME280;11789;53.482;9.862;2023-06-19T11:24:17;101094.16;;;25.25;54.27
23241;BME280;11789;53.482;9.862;2023-06-19T11:26:45;101091.41;;;25.27;54.50
23241;BME280;11789;53.482;9.862;2023-06-19T11:29:19;101094.91;;;25.27;54.43
23241;BME280;11789;53.482;9.862;2023-06-19T11:31:46;101103.19;;;25.21;54.40
23241;BME280;11789;53.482;9.862;2023-06-19T11:34:13;101099.13;;;25.16;54.32
23241;BME280;11789;53.482;9.862;2023-06-19T11:36:40;101097.59;;;25.12;55.51
23241;BME280;11789;53.482;9.862;2023-06-19T11:39:11;101100.06;;;25.15;55.87
23241;BME280;11789;53.482;9.862;2023-06-19T11:41:39;101101.31;;;25.23;55.55
23241;BME280;11789;53.482;9.862;2023-06-19T11:44:06;101096.59;;;25.28;55.49
23241;BME280;11789;53.482;9.862;2023-06-19T11:46:32;101102.88;;;25.42;56.04
23241;BME280;11789;53.482;9.862;2023-06-19T11:51:36;101100.06;;;25.59;56.83
23241;BME280;11789;53.482;9.862;2023-06-19T11:54:03;101100.53;;;25.51;54.79
23241;BME280;11789;53.482;9.862;2023-06-19T11:56:29;101113.19;;;25.46;56.15
23241;BME280;11789;53.482;9.862;2023-06-19T11:58:54;101111.50;;;25.45;56.77
23241;BME280;11789;53.482;9.862;2023-06-19T12:01:20;101112.41;;;25.44;56.72
23241;BME280;11789;53.482;9.862;2023-06-19T12:03:46;101116.59;;;25.48;56.26
23241;BME280;11789;53.482;9.862;2023-06-19T12:06:11;101110.75;;;25.57;56.72
23241;BME280;11789;53.482;9.862;2023-06-19T12:08:37;101111.87;;;25.53;58.95
23241;BME280;11789;53.482;9.862;2023-06-19T12:11:03;101114.72;;;25.50;57.22
23241;BME280;11789;53.482;9.862;2023-06-19T12:13:30;101119.06;;;25.51;57.79
23241;BME280;11789;53.482;9.862;2023-06-19T12:15:55;101120.88;;;25.51;57.67
23241;BME280;11789;53.482;9.862;2023-06-19T12:18:21;101113.88;;;25.50;58.53
23241;BME280;11789;53.482;9.862;2023-06-19T12:20:46;101119.50;;;25.44;57.21
23241;BME280;11789;53.482;9.862;2023-06-19T12:23:12;101120.66;;;25.40;57.90
23241;BME280;11789;53.482;9.862;2023-06-19T12:25:37;101126.38;;;25.32;58.70
23241;BME280;11789;53.482;9.862;2023-06-19T12:28:03;101126.84;;;25.24;60.14
23241;BME280;11789;53.482;9.862;2023-06-19T12:30:34;101128.87;;;25.19;61.09
23241;BME280;11789;53.482;9.862;2023-06-19T12:32:59;101128.72;;;25.22;61.70
23241;BME280;11789;53.482;9.862;2023-06-19T12:35:25;101131.34;;;25.22;60.88
23241;BME280;11789;53.482;9.862;2023-06-19T12:37:51;101128.81;;;25.21;59.83
23241;BME280;11789;53.482;9.862;2023-06-19T12:40:17;101128.13;;;25.17;60.46
23241;BME280;11789;53.482;9.862;2023-06-19T12:42:43;101127.53;;;25.12;60.99
23241;BME280;11789;53.482;9.862;2023-06-19T12:45:09;101134.25;;;25.02;62.12
23241;BME280;11789;53.482;9.862;2023-06-19T12:47:35;101139.72;;;24.99;61.01
23241;BME280;11789;53.482;9.862;2023-06-19T12:50:01;101138.72;;;25.01;60.33
23241;BME280;11789;53.482;9.862;2023-06-19T12:52:27;101138.22;;;25.10;60.36